sensor_id;sensor_type;location;lat;lon;timestamp;temperature;humidity
53534;DHT22;39421;53.204;6.568;2022-08-25T00:00:42;25.10;98.70
53534;DHT22;39421;53.204;6.568;2022-08-25T00:03:08;25.10;98.60
53534;DHT22;39421;53.204;6.568;2022-08-25T00:05:34;25.00;98.50
53534;DHT22;39421;53.204;6.568;2022-08-25T00:08:01;25.00;98.50
53534;DHT22;39421;53.204;6.568;2022-08-25T00:10:27;25.00;98.50
53534;DHT22;39421;53.204;6.568;2022-08-25T00:12:53;25.00;98.30
53534;DHT22;39421;53.204;6.568;2022-08-25T00:15:19;25.00;98.20
53534;DHT22;39421;53.204;6.568;2022-08-25T00:17:47;25.00;98.10
53534;DHT22;39421;53.204;6.568;2022-08-25T00:20:14;24.90;98.10
53534;DHT22;39421;53.204;6.568;2022-08-25T00:22:40;24.90;98.10
53534;DHT22;39421;53.204;6.568;2022-08-25T00:25:06;24.90;98.00
53534;DHT22;39421;53.204;6.568;2022-08-25T00:27:33;24.90;97.80
53534;DHT22;39421;53.204;6.568;2022-08-25T00:29:58;24.90;97.80
53534;DHT22;39421;53.204;6.568;2022-08-25T00:32:25;25.00;97.40
53534;DHT22;39421;53.204;6.568;2022-08-25T00:34:51;25.00;97.50
53534;DHT22;39421;53.204;6.568;2022-08-25T00:37:18;25.00;97.30
53534;DHT22;39421;53.204;6.568;2022-08-25T00:39:44;25.00;97.20
53534;DHT22;39421;53.204;6.568;2022-08-25T00:42:11;25.00;97.10
53534;DHT22;39421;53.204;6.568;2022-08-25T00:44:38;24.90;97.10
53534;DHT22;39421;53.204;6.568;2022-08-25T00:47:05;24.90;97.00
53534;DHT22;39421;53.204;6.568;2022-08-25T00:52:15;24.90;96.90
53534;DHT22;39421;53.204;6.568;2022-08-25T00:57:25;24.90;96.90
53534;DHT22;39421;53.204;6.568;2022-08-25T00:59:52;24.90;96.70
53534;DHT22;39421;53.204;6.568;2022-08-25T01:02:18;24.90;96.70
53534;DHT22;39421;53.204;6.568;2022-08-25T01:04:44;24.90;96.60
53534;DHT22;39421;53.204;6.568;2022-08-25T01:07:11;24.90;96.60
53534;DHT22;39421;53.204;6.568;2022-08-25T01:09:37;24.90;96.50
53534;DHT22;39421;53.204;6.568;2022-08-25T01:12:03;24.90;96.50
53534;DHT22;39421;53.204;6.568;2022-08-25T01:14:31;24.90;96.40
53534;DHT22;39421;53.204;6.568;2022-08-25T01:16:58;24.90;96.50
53534;DHT22;39421;53.204;6.568;2022-08-25T01:19:26;24.90;96.40
53534;DHT22;39421;53.204;6.568;2022-08-25T01:21:54;24.80;96.40
53534;DHT22;39421;53.204;6.568;2022-08-25T01:27:05;24.80;96.20
53534;DHT22;39421;53.204;6.568;2022-08-25T01:29:31;24.70;96.20
53534;DHT22;39421;53.204;6.568;2022-08-25T01:32:01;24.60;96.20
53534;DHT22;39421;53.204;6.568;2022-08-25T01:34:30;24.60;96.20
53534;DHT22;39421;53.204;6.568;2022-08-25T01:36:57;24.50;96.30
53534;DHT22;39421;53.204;6.568;2022-08-25T01:39:26;24.40;96.30
53534;DHT22;39421;53.204;6.568;2022-08-25T01:42:13;24.40;96.40
53534;DHT22;39421;53.204;6.568;2022-08-25T01:44:44;24.30;96.40
53534;DHT22;39421;53.204;6.568;2022-08-25T01:47:11;24.30;96.50
53534;DHT22;39421;53.204;6.568;2022-08-25T01:49:37;24.20;96.50
53534;DHT22;39421;53.204;6.568;2022-08-25T01:52:19;24.20;96.50
53534;DHT22;39421;53.204;6.568;2022-08-25T01:54:45;24.20;96.50
53534;DHT22;39421;53.204;6.568;2022-08-25T01:57:11;24.20;96.40
53534;DHT22;39421;53.204;6.568;2022-08-25T01:59:37;24.20;96.40
53534;DHT22;39421;53.204;6.568;2022-08-25T02:02:03;24.00;96.40
53534;DHT22;39421;53.204;6.568;2022-08-25T02:04:29;24.10;96.50
53534;DHT22;39421;53.204;6.568;2022-08-25T02:07:01;24.10;96.30
53534;DHT22;39421;53.204;6.568;2022-08-25T02:09:27;24.00;96.30
53534;DHT22;39421;53.204;6.568;2022-08-25T02:11:52;24.00;96.30
53534;DHT22;39421;53.204;6.568;2022-08-25T02:14:18;23.90;96.30
53534;DHT22;39421;53.204;6.568;2022-08-25T02:16:47;24.00;96.20
53534;DHT22;39421;53.204;6.568;2022-08-25T02:19:14;24.00;96.20
53534;DHT22;39421;53.204;6.568;2022-08-25T02:21:40;24.00;96.10
53534;DHT22;39421;53.204;6.568;2022-08-25T02:24:07;23.90;96.00
53534;DHT22;39421;53.204;6.568;2022-08-25T02:26:33;23.90;95.90
53534;DHT22;39421;53.204;6.568;2022-08-25T02:29:01;23.90;96.00
53534;DHT22;39421;53.204;6.568;2022-08-25T02:31:27;23.90;95.90
53534;DHT22;39421;53.204;6.568;2022-08-25T02:33:53;23.80;95.90
53534;DHT22;39421;53.204;6.568;2022-08-25T02:36:20;23.80;95.80
53534;DHT22;39421;53.204;6.568;2022-08-25T02:38:46;23.80;95.80
53534;DHT22;39421;53.204;6.568;2022-08-25T02:41:15;23.80;96.30
53534;DHT22;39421;53.204;6.568;2022-08-25T02:43:43;23.80;96.20
53534;DHT22;39421;53.204;6.568;2022-08-25T02:46:10;23.70;95.90
53534;DHT22;39421;53.204;6.568;2022-08-25T02:48:37;23.70;95.80
53534;DHT22;39421;53.204;6.568;2022-08-25T02:51:03;23.70;95.80
53534;DHT22;39421;53.204;6.568;2022-08-25T02:53:32;23.70;95.90
53534;DHT22;39421;53.204;6.568;2022-08-25T02:55:58;23.70;95.90
53534;DHT22;39421;53.204;6.568;2022-08-25T02:58:24;23.60;95.90
53534;DHT22;39421;53.204;6.568;2022-08-25T03:00:51;23.60;95.90
53534;DHT22;39421;53.204;6.568;2022-08-25T03:03:17;23.60;96.00
53534;DHT22;39421;53.204;6.568;2022-08-25T03:05:43;23.50;96.00
53534;DHT22;39421;53.204;6.568;2022-08-25T03:08:11;23.50;96.00
53534;DHT22;39421;53.204;6.568;2022-08-25T03:10:37;23.40;96.20
53534;DHT22;39421;53.204;6.568;2022-08-25T03:13:02;23.40;96.20
53534;DHT22;39421;53.204;6.568;2022-08-25T03:15:29;23.40;96.10
53534;DHT22;39421;53.204;6.568;2022-08-25T03:17:55;23.40;96.10
53534;DHT22;39421;53.204;6.568;2022-08-25T03:20:22;23.40;96.10
53534;DHT22;39421;53.204;6.568;2022-08-25T03:22:49;23.30;96.20
53534;DHT22;39421;53.204;6.568;2022-08-25T03:25:15;23.30;96.20
53534;DHT22;39421;53.204;6.568;2022-08-25T03:28:00;23.30;96.10
53534;DHT22;39421;53.204;6.568;2022-08-25T03:30:26;23.30;96.50
53534;DHT22;39421;53.204;6.568;2022-08-25T03:32:53;23.20;96.20
53534;DHT22;39421;53.204;6.568;2022-08-25T03:35:19;23.20;96.30
53534;DHT22;39421;53.204;6.568;2022-08-25T03:37:45;23.20;96.30
53534;DHT22;39421;53.204;6.568;2022-08-25T03:40:12;23.20;96.30
53534;DHT22;39421;53.204;6.568;2022-08-25T03:42:43;23.10;96.20
53534;DHT22;39421;53.204;6.568;2022-08-25T03:45:10;23.10;96.30
53534;DHT22;39421;53.204;6.568;2022-08-25T03:47:37;23.00;96.40
53534;DHT22;39421;53.204;6.568;2022-08-25T03:50:06;23.00;96.50
53534;DHT22;39421;53.204;6.568;2022-08-25T03:52:33;22.90;96.80
53534;DHT22;39421;53.204;6.568;2022-08-25T03:54:59;22.90;96.60
53534;DHT22;39421;53.204;6.568;2022-08-25T03:57:25;22.90;96.50
53534;DHT22;39421;53.204;6.568;2022-08-25T03:59:50;22.90;96.60
53534;DHT22;39421;53.204;6.568;2022-08-25T04:02:18;22.90;96.70
53534;DHT22;39421;53.204;6.568;2022-08-25T04:04:44;22.80;96.70
53534;DHT22;39421;53.204;6.568;2022-08-25T04:07:10;22.70;96.70
53534;DHT22;39421;53.204;6.568;2022-08-25T04:09:36;22.70;96.90
53534;DHT22;39421;53.204;6.568;2022-08-25T04:12:02;22.60;96.90
53534;DHT22;39421;53.204;6.568;2022-08-25T04:14:27;22.60;96.90
53534;DHT22;39421;53.204;6.568;2022-08-25T04:16:53;22.60;97.00
53534;DHT22;39421;53.204;6.568;2022-08-25T04:19:19;22.60;97.00
53534;DHT22;39421;53.204;6.568;2022-08-25T04:21:45;22.50;97.10
53534;DHT22;39421;53.204;6.568;2022-08-25T04:24:11;22.50;97.10
53534;DHT22;39421;53.204;6.568;2022-08-25T04:26:44;22.60;97.10
53534;DHT22;39421;53.204;6.568;2022-08-25T04:29:13;22.60;97.10
53534;DHT22;39421;53.204;6.568;2022-08-25T04:31:41;22.60;97.00
53534;DHT22;39421;53.204;6.568;2022-08-25T04:34:08;22.70;97.00
53534;DHT22;39421;53.204;6.568;2022-08-25T04:36:34;22.70;96.90
53534;DHT22;39421;53.204;6.568;2022-08-25T04:39:00;22.70;96.80
53534;DHT22;39421;53.204;6.568;2022-08-25T04:41:26;22.70;96.90
53534;DHT22;39421;53.204;6.568;2022-08-25T04:43:56;22.70;96.90
53534;DHT22;39421;53.204;6.568;2022-08-25T04:46:25;22.70;96.90
53534;DHT22;39421;53.204;6.568;2022-08-25T04:48:52;22.80;96.90
53534;DHT22;39421;53.204;6.568;2022-08-25T04:51:22;22.80;96.80
53534;DHT22;39421;53.204;6.568;2022-08-25T04:53:48;22.80;96.80
53534;DHT22;39421;53.204;6.568;2022-08-25T04:56:16;22.90;96.80
53534;DHT22;39421;53.204;6.568;2022-08-25T04:58:42;22.90;96.80
53534;DHT22;39421;53.204;6.568;2022-08-25T05:01:11;22.90;96.80
53534;DHT22;39421;53.204;6.568;2022-08-25T05:03:37;22.80;96.80
53534;DHT22;39421;53.204;6.568;2022-08-25T05:06:04;22.80;96.80
53534;DHT22;39421;53.204;6.568;2022-08-25T05:08:31;22.90;96.90
53534;DHT22;39421;53.204;6.568;2022-08-25T05:10:57;22.90;96.90
53534;DHT22;39421;53.204;6.568;2022-08-25T05:13:24;22.90;96.90
53534;DHT22;39421;53.204;6.568;2022-08-25T05:15:57;22.90;97.00
53534;DHT22;39421;53.204;6.568;2022-08-25T05:18:25;22.90;96.90
53534;DHT22;39421;53.204;6.568;2022-08-25T05:20:52;22.90;96.90
53534;DHT22;39421;53.204;6.568;2022-08-25T05:23:19;22.90;97.00
53534;DHT22;39421;53.204;6.568;2022-08-25T05:25:45;22.90;97.00
53534;DHT22;39421;53.204;6.568;2022-08-25T05:28:11;23.00;97.00
53534;DHT22;39421;53.204;6.568;2022-08-25T05:30:41;23.10;97.00
53534;DHT22;39421;53.204;6.568;2022-08-25T05:33:08;23.20;96.90
53534;DHT22;39421;53.204;6.568;2022-08-25T05:35:34;23.30;96.80
53534;DHT22;39421;53.204;6.568;2022-08-25T05:38:01;23.40;96.80
53534;DHT22;39421;53.204;6.568;2022-08-25T05:40:27;23.50;96.70
53534;DHT22;39421;53.204;6.568;2022-08-25T05:42:53;23.50;96.70
53534;DHT22;39421;53.204;6.568;2022-08-25T05:45:19;23.70;96.60
53534;DHT22;39421;53.204;6.568;2022-08-25T05:47:44;23.70;96.50
53534;DHT22;39421;53.204;6.568;2022-08-25T05:50:10;23.80;96.40
53534;DHT22;39421;53.204;6.568;2022-08-25T05:52:36;23.80;96.30
53534;DHT22;39421;53.204;6.568;2022-08-25T05:55:02;23.90;96.40
53534;DHT22;39421;53.204;6.568;2022-08-25T05:57:28;24.00;96.30
53534;DHT22;39421;53.204;6.568;2022-08-25T05:59:54;24.00;96.40
53534;DHT22;39421;53.204;6.568;2022-08-25T06:02:20;24.10;96.30
53534;DHT22;39421;53.204;6.568;2022-08-25T06:05:04;24.20;96.20
53534;DHT22;39421;53.204;6.568;2022-08-25T06:07:30;24.40;96.20
53534;DHT22;39421;53.204;6.568;2022-08-25T06:09:55;24.40;96.20
53534;DHT22;39421;53.204;6.568;2022-08-25T06:12:21;24.60;96.00
53534;DHT22;39421;53.204;6.568;2022-08-25T06:14:47;24.60;96.00
53534;DHT22;39421;53.204;6.568;2022-08-25T06:17:16;24.70;96.10
53534;DHT22;39421;53.204;6.568;2022-08-25T06:19:42;24.90;96.00
53534;DHT22;39421;53.204;6.568;2022-08-25T06:22:08;25.00;95.90
53534;DHT22;39421;53.204;6.568;2022-08-25T06:24:33;25.10;95.80
53534;DHT22;39421;53.204;6.568;2022-08-25T06:26:59;25.10;95.90
53534;DHT22;39421;53.204;6.568;2022-08-25T06:29:25;25.10;95.90
53534;DHT22;39421;53.204;6.568;2022-08-25T06:31:51;25.30;95.80
53534;DHT22;39421;53.204;6.568;2022-08-25T06:34:17;25.40;95.80
53534;DHT22;39421;53.204;6.568;2022-08-25T06:36:43;25.40;95.70
53534;DHT22;39421;53.204;6.568;2022-08-25T06:39:09;25.60;95.70
53534;DHT22;39421;53.204;6.568;2022-08-25T06:41:34;25.70;95.60
53534;DHT22;39421;53.204;6.568;2022-08-25T06:44:00;25.90;95.50
53534;DHT22;39421;53.204;6.568;2022-08-25T06:46:27;26.00;95.40
53534;DHT22;39421;53.204;6.568;2022-08-25T06:48:54;26.00;95.30
53534;DHT22;39421;53.204;6.568;2022-08-25T06:51:21;26.10;95.30
53534;DHT22;39421;53.204;6.568;2022-08-25T06:53:48;26.20;95.20
53534;DHT22;39421;53.204;6.568;2022-08-25T06:56:19;26.30;94.90
53534;DHT22;39421;53.204;6.568;2022-08-25T06:58:45;26.40;94.80
53534;DHT22;39421;53.204;6.568;2022-08-25T07:01:14;26.40;94.80
53534;DHT22;39421;53.204;6.568;2022-08-25T07:03:41;26.40;95.00
53534;DHT22;39421;53.204;6.568;2022-08-25T07:06:07;26.40;94.90
53534;DHT22;39421;53.204;6.568;2022-08-25T07:08:33;26.40;94.80
53534;DHT22;39421;53.204;6.568;2022-08-25T07:11:08;26.50;94.60
53534;DHT22;39421;53.204;6.568;2022-08-25T07:13:34;26.50;94.40
53534;DHT22;39421;53.204;6.568;2022-08-25T07:16:00;26.50;94.40
53534;DHT22;39421;53.204;6.568;2022-08-25T07:18:26;26.50;94.50
53534;DHT22;39421;53.204;6.568;2022-08-25T07:20:52;26.40;94.50
53534;DHT22;39421;53.204;6.568;2022-08-25T07:23:19;26.40;94.80
53534;DHT22;39421;53.204;6.568;2022-08-25T07:25:45;26.50;94.80
53534;DHT22;39421;53.204;6.568;2022-08-25T07:28:12;26.50;94.50
53534;DHT22;39421;53.204;6.568;2022-08-25T07:30:38;26.50;94.50
53534;DHT22;39421;53.204;6.568;2022-08-25T07:33:04;26.60;94.20
53534;DHT22;39421;53.204;6.568;2022-08-25T07:35:29;26.60;94.30
53534;DHT22;39421;53.204;6.568;2022-08-25T07:37:58;26.60;94.50
53534;DHT22;39421;53.204;6.568;2022-08-25T07:42:54;26.80;94.40
53534;DHT22;39421;53.204;6.568;2022-08-25T07:45:23;27.00;94.40
53534;DHT22;39421;53.204;6.568;2022-08-25T07:47:59;27.10;94.30
53534;DHT22;39421;53.204;6.568;2022-08-25T07:50:26;27.30;94.20
53534;DHT22;39421;53.204;6.568;2022-08-25T07:52:52;27.40;94.30
53534;DHT22;39421;53.204;6.568;2022-08-25T07:55:18;27.40;94.10
53534;DHT22;39421;53.204;6.568;2022-08-25T07:57:44;27.40;94.00
53534;DHT22;39421;53.204;6.568;2022-08-25T08:00:11;27.60;94.00
53534;DHT22;39421;53.204;6.568;2022-08-25T08:02:39;27.70;93.90
53534;DHT22;39421;53.204;6.568;2022-08-25T08:05:05;27.80;93.90
53534;DHT22;39421;53.204;6.568;2022-08-25T08:07:31;27.90;93.90
53534;DHT22;39421;53.204;6.568;2022-08-25T08:09:57;28.00;93.90
53534;DHT22;39421;53.204;6.568;2022-08-25T08:12:23;28.10;93.90
53534;DHT22;39421;53.204;6.568;2022-08-25T08:14:50;28.20;93.90
53534;DHT22;39421;53.204;6.568;2022-08-25T08:17:16;28.40;93.80
53534;DHT22;39421;53.204;6.568;2022-08-25T08:19:42;28.60;93.60
53534;DHT22;39421;53.204;6.568;2022-08-25T08:22:08;28.80;93.50
53534;DHT22;39421;53.204;6.568;2022-08-25T08:24:36;28.90;93.20
53534;DHT22;39421;53.204;6.568;2022-08-25T08:27:05;29.20;93.10
53534;DHT22;39421;53.204;6.568;2022-08-25T08:29:32;29.40;92.90
53534;DHT22;39421;53.204;6.568;2022-08-25T08:31:57;29.50;92.60
53534;DHT22;39421;53.204;6.568;2022-08-25T08:34:24;29.60;92.70
53534;DHT22;39421;53.204;6.568;2022-08-25T08:36:50;29.60;92.70
53534;DHT22;39421;53.204;6.568;2022-08-25T08:39:16;29.80;92.50
53534;DHT22;39421;53.204;6.568;2022-08-25T08:57:57;30.20;92.00
53534;DHT22;39421;53.204;6.568;2022-08-25T09:00:24;30.20;91.90
53534;DHT22;39421;53.204;6.568;2022-08-25T09:03:16;30.20;91.30
53534;DHT22;39421;53.204;6.568;2022-08-25T09:05:46;30.10;91.20
53534;DHT22;39421;53.204;6.568;2022-08-25T09:08:13;30.10;91.00
53534;DHT22;39421;53.204;6.568;2022-08-25T09:13:44;30.20;91.00
53534;DHT22;39421;53.204;6.568;2022-08-25T09:16:25;30.30;91.10
53534;DHT22;39421;53.204;6.568;2022-08-25T09:22:27;30.40;90.70
53534;DHT22;39421;53.204;6.568;2022-08-25T09:27:40;30.50;90.30
53534;DHT22;39421;53.204;6.568;2022-08-25T09:30:15;30.40;90.40
53534;DHT22;39421;53.204;6.568;2022-08-25T09:32:44;30.50;90.50
53534;DHT22;39421;53.204;6.568;2022-08-25T09:35:24;30.50;90.20
53534;DHT22;39421;53.204;6.568;2022-08-25T09:38:10;30.60;90.20
53534;DHT22;39421;53.204;6.568;2022-08-25T09:40:50;30.60;89.70
53534;DHT22;39421;53.204;6.568;2022-08-25T09:43:28;30.70;89.10
53534;DHT22;39421;53.204;6.568;2022-08-25T09:48:31;30.80;88.80
53534;DHT22;39421;53.204;6.568;2022-08-25T09:51:18;31.00;88.10
53534;DHT22;39421;53.204;6.568;2022-08-25T09:56:54;31.10;87.40
53534;DHT22;39421;53.204;6.568;2022-08-25T09:59:38;31.20;87.00
53534;DHT22;39421;53.204;6.568;2022-08-25T10:02:27;31.40;86.00
53534;DHT22;39421;53.204;6.568;2022-08-25T10:04:54;31.50;85.80
53534;DHT22;39421;53.204;6.568;2022-08-25T10:07:27;31.50;85.40
53534;DHT22;39421;53.204;6.568;2022-08-25T10:09:59;31.70;85.50
53534;DHT22;39421;53.204;6.568;2022-08-25T10:12:39;31.90;84.00
53534;DHT22;39421;53.204;6.568;2022-08-25T10:15:27;32.40;84.20
53534;DHT22;39421;53.204;6.568;2022-08-25T10:17:53;33.00;83.20
53534;DHT22;39421;53.204;6.568;2022-08-25T10:20:22;33.00;82.20
53534;DHT22;39421;53.204;6.568;2022-08-25T10:22:49;32.50;82.40
53534;DHT22;39421;53.204;6.568;2022-08-25T10:25:20;32.00;82.60
53534;DHT22;39421;53.204;6.568;2022-08-25T10:28:08;31.80;83.30
53534;DHT22;39421;53.204;6.568;2022-08-25T10:36:21;31.60;83.50
53534;DHT22;39421;53.204;6.568;2022-08-25T10:38:57;31.60;84.00
53534;DHT22;39421;53.204;6.568;2022-08-25T10:41:48;31.50;83.00
53534;DHT22;39421;53.204;6.568;2022-08-25T10:44:32;31.50;82.80
53534;DHT22;39421;53.204;6.568;2022-08-25T10:58:23;31.90;82.30
53534;DHT22;39421;53.204;6.568;2022-08-25T11:01:02;32.00;81.40
53534;DHT22;39421;53.204;6.568;2022-08-25T11:03:37;32.00;81.60
53534;DHT22;39421;53.204;6.568;2022-08-25T11:06:08;32.10;80.90
53534;DHT22;39421;53.204;6.568;2022-08-25T11:09:12;32.10;80.80
53534;DHT22;39421;53.204;6.568;2022-08-25T11:11:37;32.10;81.30
53534;DHT22;39421;53.204;6.568;2022-08-25T11:14:18;32.00;81.20
53534;DHT22;39421;53.204;6.568;2022-08-25T11:17:05;32.10;81.00
53534;DHT22;39421;53.204;6.568;2022-08-25T11:19:37;32.10;80.80
53534;DHT22;39421;53.204;6.568;2022-08-25T11:27:03;32.20;79.80
53534;DHT22;39421;53.204;6.568;2022-08-25T11:29:33;32.30;80.30
53534;DHT22;39421;53.204;6.568;2022-08-25T11:32:01;32.30;80.60
53534;DHT22;39421;53.204;6.568;2022-08-25T11:34:34;32.50;80.30
53534;DHT22;39421;53.204;6.568;2022-08-25T11:37:08;32.50;80.10
53534;DHT22;39421;53.204;6.568;2022-08-25T11:45:15;32.90;80.90
53534;DHT22;39421;53.204;6.568;2022-08-25T11:50:34;32.90;78.50
53534;DHT22;39421;53.204;6.568;2022-08-25T11:53:24;32.90;76.30
53534;DHT22;39421;53.204;6.568;2022-08-25T11:55:53;32.80;76.40
53534;DHT22;39421;53.204;6.568;2022-08-25T11:58:40;32.70;76.80
53534;DHT22;39421;53.204;6.568;2022-08-25T12:02:26;32.50;77.10
53534;DHT22;39421;53.204;6.568;2022-08-25T12:04:13;32.50;76.70
53534;DHT22;39421;53.204;6.568;2022-08-25T12:29:10;32.60;74.90
53534;DHT22;39421;53.204;6.568;2022-08-25T12:37:24;32.60;73.90
53534;DHT22;39421;53.204;6.568;2022-08-25T12:42:33;32.40;73.80
53534;DHT22;39421;53.204;6.568;2022-08-25T12:47:39;32.30;73.60
53534;DHT22;39421;53.204;6.568;2022-08-25T12:52:56;32.50;74.50
53534;DHT22;39421;53.204;6.568;2022-08-25T12:55:25;32.40;75.20
53534;DHT22;39421;53.204;6.568;2022-08-25T12:57:53;32.50;74.30
53534;DHT22;39421;53.204;6.568;2022-08-25T13:00:28;32.70;73.40
53534;DHT22;39421;53.204;6.568;2022-08-25T13:03:14;32.70;73.30
53534;DHT22;39421;53.204;6.568;2022-08-25T13:06:14;32.90;72.80
53534;DHT22;39421;53.204;6.568;2022-08-25T13:14:39;32.70;71.90
53534;DHT22;39421;53.204;6.568;2022-08-25T13:17:06;32.70;72.40
53534;DHT22;39421;53.204;6.568;2022-08-25T13:19:32;32.80;72.20
53534;DHT22;39421;53.204;6.568;2022-08-25T13:22:01;32.80;71.50
53534;DHT22;39421;53.204;6.568;2022-08-25T13:26:58;32.60;69.40
53534;DHT22;39421;53.204;6.568;2022-08-25T13:29:33;32.60;69.50
53534;DHT22;39421;53.204;6.568;2022-08-25T13:32:03;32.50;69.80
53534;DHT22;39421;53.204;6.568;2022-08-25T13:34:35;32.40;70.60
53534;DHT22;39421;53.204;6.568;2022-08-25T13:37:16;32.30;71.10
53534;DHT22;39421;53.204;6.568;2022-08-25T13:40:22;32.30;71.40
53534;DHT22;39421;53.204;6.568;2022-08-25T13:42:51;32.30;72.20
53534;DHT22;39421;53.204;6.568;2022-08-25T13:45:23;32.30;72.40
53534;DHT22;39421;53.204;6.568;2022-08-25T13:47:50;32.40;72.80
53534;DHT22;39421;53.204;6.568;2022-08-25T13:50:21;32.50;72.40
53534;DHT22;39421;53.204;6.568;2022-08-25T13:53:05;32.50;71.40
53534;DHT22;39421;53.204;6.568;2022-08-25T13:58:01;32.40;71.60
53534;DHT22;39421;53.204;6.568;2022-08-25T14:00:42;32.40;71.30
53534;DHT22;39421;53.204;6.568;2022-08-25T14:03:35;32.20;71.30
53534;DHT22;39421;53.204;6.568;2022-08-25T14:06:27;32.20;70.70
53534;DHT22;39421;53.204;6.568;2022-08-25T14:11:47;32.40;69.60
53534;DHT22;39421;53.204;6.568;2022-08-25T14:16:51;32.20;70.30
53534;DHT22;39421;53.204;6.568;2022-08-25T14:19:21;32.20;69.50
53534;DHT22;39421;53.204;6.568;2022-08-25T14:21:48;32.20;70.40
53534;DHT22;39421;53.204;6.568;2022-08-25T14:24:20;32.20;71.00
53534;DHT22;39421;53.204;6.568;2022-08-25T14:26:47;32.30;69.90
53534;DHT22;39421;53.204;6.568;2022-08-25T14:29:14;32.30;70.30
53534;DHT22;39421;53.204;6.568;2022-08-25T14:31:42;32.30;70.80
53534;DHT22;39421;53.204;6.568;2022-08-25T14:34:14;32.30;71.20
53534;DHT22;39421;53.204;6.568;2022-08-25T14:36:41;32.40;71.40
53534;DHT22;39421;53.204;6.568;2022-08-25T14:39:07;32.40;71.70
53534;DHT22;39421;53.204;6.568;2022-08-25T14:41:35;32.40;71.50
53534;DHT22;39421;53.204;6.568;2022-08-25T14:44:01;32.40;71.20
53534;DHT22;39421;53.204;6.568;2022-08-25T14:46:30;32.40;71.70
53534;DHT22;39421;53.204;6.568;2022-08-25T14:49:01;32.40;71.50
53534;DHT22;39421;53.204;6.568;2022-08-25T14:51:29;32.50;71.70
53534;DHT22;39421;53.204;6.568;2022-08-25T14:54:00;32.50;72.20
53534;DHT22;39421;53.204;6.568;2022-08-25T14:56:27;32.50;71.90
53534;DHT22;39421;53.204;6.568;2022-08-25T14:58:53;32.30;72.90
53534;DHT22;39421;53.204;6.568;2022-08-25T15:01:20;32.30;72.40
53534;DHT22;39421;53.204;6.568;2022-08-25T15:03:47;32.20;72.60
53534;DHT22;39421;53.204;6.568;2022-08-25T15:06:16;32.30;72.80
53534;DHT22;39421;53.204;6.568;2022-08-25T15:08:42;32.30;72.90
53534;DHT22;39421;53.204;6.568;2022-08-25T15:11:27;32.40;72.60
53534;DHT22;39421;53.204;6.568;2022-08-25T15:13:53;32.40;72.40
53534;DHT22;39421;53.204;6.568;2022-08-25T15:16:31;32.30;72.10
53534;DHT22;39421;53.204;6.568;2022-08-25T15:18:59;32.20;72.30
53534;DHT22;39421;53.204;6.568;2022-08-25T15:21:25;32.20;72.10
53534;DHT22;39421;53.204;6.568;2022-08-25T15:23:50;32.10;72.00
53534;DHT22;39421;53.204;6.568;2022-08-25T15:26:16;32.00;72.40
53534;DHT22;39421;53.204;6.568;2022-08-25T15:28:47;32.00;72.70
53534;DHT22;39421;53.204;6.568;2022-08-25T15:31:15;32.10;72.80
53534;DHT22;39421;53.204;6.568;2022-08-25T15:33:41;32.10;72.50
53534;DHT22;39421;53.204;6.568;2022-08-25T15:36:12;32.00;72.20
53534;DHT22;39421;53.204;6.568;2022-08-25T15:38:39;32.00;72.20
53534;DHT22;39421;53.204;6.568;2022-08-25T15:41:06;32.10;72.20
53534;DHT22;39421;53.204;6.568;2022-08-25T15:43:33;32.00;72.10
53534;DHT22;39421;53.204;6.568;2022-08-25T15:45:58;32.00;72.30
53534;DHT22;39421;53.204;6.568;2022-08-25T15:48:24;32.10;72.20
53534;DHT22;39421;53.204;6.568;2022-08-25T15:50:54;32.10;72.30
53534;DHT22;39421;53.204;6.568;2022-08-25T15:53:22;32.20;72.40
53534;DHT22;39421;53.204;6.568;2022-08-25T15:55:50;32.20;72.60
53534;DHT22;39421;53.204;6.568;2022-08-25T15:58:16;32.20;72.90
53534;DHT22;39421;53.204;6.568;2022-08-25T16:00:43;32.20;72.30
53534;DHT22;39421;53.204;6.568;2022-08-25T16:03:09;32.20;72.30
53534;DHT22;39421;53.204;6.568;2022-08-25T16:05:36;32.10;72.40
53534;DHT22;39421;53.204;6.568;2022-08-25T16:08:02;32.00;72.80
53534;DHT22;39421;53.204;6.568;2022-08-25T16:10:32;32.00;73.10
53534;DHT22;39421;53.204;6.568;2022-08-25T16:12:58;32.00;73.00
53534;DHT22;39421;53.204;6.568;2022-08-25T16:15:23;32.10;73.10
53534;DHT22;39421;53.204;6.568;2022-08-25T16:17:49;32.10;73.50
53534;DHT22;39421;53.204;6.568;2022-08-25T16:20:15;32.10;73.20
53534;DHT22;39421;53.204;6.568;2022-08-25T16:22:41;32.10;73.10
53534;DHT22;39421;53.204;6.568;2022-08-25T16:25:09;32.10;72.50
53534;DHT22;39421;53.204;6.568;2022-08-25T16:27:35;32.10;72.10
53534;DHT22;39421;53.204;6.568;2022-08-25T16:30:01;32.10;72.00
53534;DHT22;39421;53.204;6.568;2022-08-25T16:32:27;32.00;72.60
53534;DHT22;39421;53.204;6.568;2022-08-25T16:34:52;32.00;72.70
53534;DHT22;39421;53.204;6.568;2022-08-25T16:37:18;31.90;73.00
53534;DHT22;39421;53.204;6.568;2022-08-25T16:39:44;31.90;72.70
53534;DHT22;39421;53.204;6.568;2022-08-25T16:42:11;31.90;72.10
53534;DHT22;39421;53.204;6.568;2022-08-25T16:44:36;31.90;72.20
53534;DHT22;39421;53.204;6.568;2022-08-25T16:47:04;31.90;72.20
53534;DHT22;39421;53.204;6.568;2022-08-25T16:49:30;31.90;72.20
53534;DHT22;39421;53.204;6.568;2022-08-25T16:51:56;32.00;72.70
53534;DHT22;39421;53.204;6.568;2022-08-25T16:54:21;32.00;72.50
53534;DHT22;39421;53.204;6.568;2022-08-25T16:57:05;32.00;72.60
53534;DHT22;39421;53.204;6.568;2022-08-25T16:59:31;32.00;72.70
53534;DHT22;39421;53.204;6.568;2022-08-25T17:01:57;32.00;72.60
53534;DHT22;39421;53.204;6.568;2022-08-25T17:04:22;32.00;72.80
53534;DHT22;39421;53.204;6.568;2022-08-25T17:06:48;32.00;73.10
53534;DHT22;39421;53.204;6.568;2022-08-25T17:09:14;31.90;73.20
53534;DHT22;39421;53.204;6.568;2022-08-25T17:11:45;31.90;73.20
53534;DHT22;39421;53.204;6.568;2022-08-25T17:14:14;31.90;73.00
53534;DHT22;39421;53.204;6.568;2022-08-25T17:16:41;31.90;73.40
53534;DHT22;39421;53.204;6.568;2022-08-25T17:19:08;31.90;73.40
53534;DHT22;39421;53.204;6.568;2022-08-25T17:21:39;31.90;73.50
53534;DHT22;39421;53.204;6.568;2022-08-25T17:24:06;31.80;73.80
53534;DHT22;39421;53.204;6.568;2022-08-25T17:26:32;31.80;74.10
53534;DHT22;39421;53.204;6.568;2022-08-25T17:29:00;31.80;74.40
53534;DHT22;39421;53.204;6.568;2022-08-25T17:31:27;31.80;74.40
53534;DHT22;39421;53.204;6.568;2022-08-25T17:33:53;31.70;75.20
53534;DHT22;39421;53.204;6.568;2022-08-25T17:36:19;31.70;74.60
53534;DHT22;39421;53.204;6.568;2022-08-25T17:38:45;31.60;75.40
53534;DHT22;39421;53.204;6.568;2022-08-25T17:41:11;31.60;75.30
53534;DHT22;39421;53.204;6.568;2022-08-25T17:43:39;31.60;75.40
53534;DHT22;39421;53.204;6.568;2022-08-25T17:46:06;31.60;75.50